Time;durP1;ratioP1;P1;durP2;ratioP2;P2;SDS_P1;SDS_P2;PMS_P1;PMS_P2;Temp;Humidity;BMP_temperature;BMP_pressure;BME280_temperature;BME280_humidity;BME280_pressure;Samples;Min_cycle;Max_cycle;Signal;HPM_P1;HPM_P2
2022/05/12 00:00:47;;;;;;;14.38;4.63;;;;;;;;;;5007082;28;20025;-61
2022/05/12 00:03:13;;;;;;;10.98;4.13;;;;;;;;;;5010041;28;20038;-61
2022/05/12 00:05:38;;;;;;;8.95;4.03;;;;;;;;;;5008009;28;20390;-61
2022/05/12 00:08:04;;;;;;;7.40;3.33;;;;;;;;;;5011223;28;20040;-61
2022/05/12 00:10:30;;;;;;;7.50;3.50;;;;;;;;;;5011864;28;20043;-61
2022/05/12 00:12:58;;;;;;;7.03;4.00;;;;;;;;;;5000746;28;20036;-62
2022/05/12 00:15:31;;;;;;;8.32;3.65;;;;;;;;;;5011886;28;20040;-62
2022/05/12 00:17:57;;;;;;;6.28;3.45;;;;;;;;;;5016740;28;20064;-62
2022/05/12 00:20:23;;;;;;;7.75;3.50;;;;;;;;;;5011625;28;20038;-61
2022/05/12 00:22:49;;;;;;;10.23;3.60;;;;;;;;;;5009100;28;20074;-62
2022/05/12 00:25:21;;;;;;;7.18;3.42;;;;;;;;;;5011438;28;20029;-61
2022/05/12 00:27:47;;;;;;;5.90;2.80;;;;;;;;;;5009151;28;20108;-61
2022/05/12 00:30:13;;;;;;;7.53;3.40;;;;;;;;;;5008627;28;20093;-62
2022/05/12 00:32:45;;;;;;;8.13;3.50;;;;;;;;;;5010819;28;20037;-61
2022/05/12 00:35:14;;;;;;;;;;;;;;;;;;5006946;28;20045;-61
2022/05/12 00:37:39;;;;;;;11.20;3.72;;;;;;;;;;5008531;28;19920;-61
2022/05/12 00:40:06;;;;;;;9.98;3.35;;;;;;;;;;5004930;28;20378;-61
2022/05/12 00:42:31;;;;;;;6.00;3.20;;;;;;;;;;5009204;28;20046;-61
2022/05/12 00:44:57;;;;;;;8.05;3.60;;;;;;;;;;4992003;28;20430;-61
2022/05/12 00:47:22;;;;;;;7.10;2.90;;;;;;;;;;4997470;28;20057;-61
2022/05/12 00:49:51;;;;;;;6.20;3.00;;;;;;;;;;5010064;28;20042;-62
2022/05/12 00:52:22;;;;;;;8.60;3.33;;;;;;;;;;5008304;28;20042;-62
2022/05/12 00:54:55;;;;;;;6.93;3.22;;;;;;;;;;5009158;28;20029;-62
2022/05/12 00:57:28;;;;;;;6.32;2.97;;;;;;;;;;5008937;28;20064;-62
2022/05/12 00:59:54;;;;;;;6.63;3.65;;;;;;;;;;5010036;28;20111;-62
2022/05/12 01:02:20;;;;;;;7.38;3.17;;;;;;;;;;5023092;28;20363;-62
2022/05/12 01:04:47;;;;;;;8.43;3.25;;;;;;;;;;5005612;28;20116;-61
2022/05/12 01:07:13;;;;;;;6.70;2.95;;;;;;;;;;5008035;28;20033;-62
2022/05/12 01:09:44;;;;;;;6.90;2.65;;;;;;;;;;5001568;28;20060;-63
2022/05/12 01:12:10;;;;;;;7.10;2.80;;;;;;;;;;5022828;28;20616;-62
2022/05/12 01:14:36;;;;;;;6.38;2.67;;;;;;;;;;5014484;28;20038;-62
2022/05/12 01:17:04;;;;;;;5.78;2.90;;;;;;;;;;5009007;28;20459;-63
2022/05/12 01:19:32;;;;;;;5.65;3.00;;;;;;;;;;5023598;28;20041;-61
2022/05/12 01:21:59;;;;;;;4.78;2.80;;;;;;;;;;4998973;28;20466;-62
2022/05/12 01:24:42;;;;;;;5.32;2.80;;;;;;;;;;5014713;28;20522;-61
2022/05/12 01:27:19;;;;;;;7.75;2.97;;;;;;;;;;5013527;28;20029;-60
2022/05/12 01:29:53;;;;;;;5.38;2.58;;;;;;;;;;5009070;28;20058;-60
2022/05/12 01:32:21;;;;;;;6.07;2.90;;;;;;;;;;5014565;28;20026;-60
2022/05/12 01:34:47;;;;;;;6.72;2.70;;;;;;;;;;5011025;28;20037;-60
2022/05/12 01:37:13;;;;;;;6.97;2.97;;;;;;;;;;5013163;28;20423;-60
2022/05/12 01:39:38;;;;;;;6.15;3.03;;;;;;;;;;5014178;28;20539;-60
2022/05/12 01:42:05;;;;;;;7.65;2.78;;;;;;;;;;5004120;28;20038;-60
2022/05/12 01:44:31;;;;;;;5.53;2.60;;;;;;;;;;5004927;28;20064;-61
2022/05/12 01:46:57;;;;;;;4.75;2.67;;;;;;;;;;5000309;28;20078;-63
2022/05/12 01:49:23;;;;;;;7.30;2.78;;;;;;;;;;5009703;28;20026;-61
2022/05/12 01:51:52;;;;;;;5.68;2.50;;;;;;;;;;5013398;28;20034;-61
2022/05/12 01:54:18;;;;;;;7.13;2.78;;;;;;;;;;5019563;28;20863;-60
2022/05/12 01:56:43;;;;;;;7.82;2.80;;;;;;;;;;5013490;28;20044;-60
2022/05/12 01:59:08;;;;;;;6.10;2.83;;;;;;;;;;5013306;28;20493;-61
2022/05/12 02:01:34;;;;;;;6.13;2.55;;;;;;;;;;5012631;28;20483;-62
2022/05/12 02:04:01;;;;;;;6.88;2.60;;;;;;;;;;5012719;28;20030;-61
2022/05/12 02:06:27;;;;;;;4.88;2.60;;;;;;;;;;5013673;28;20045;-61
2022/05/12 02:08:58;;;;;;;5.85;2.33;;;;;;;;;;5013629;28;20030;-60
2022/05/12 02:11:24;;;;;;;9.52;2.50;;;;;;;;;;5012963;28;20030;-61
2022/05/12 02:13:50;;;;;;;11.07;3.67;;;;;;;;;;5014109;28;20080;-61
2022/05/12 02:16:16;;;;;;;11.05;2.83;;;;;;;;;;5010139;28;20689;-61
2022/05/12 02:18:43;;;;;;;8.07;2.75;;;;;;;;;;5013907;28;20064;-60
2022/05/12 02:21:09;;;;;;;6.38;2.50;;;;;;;;;;5011240;28;20038;-60
2022/05/12 02:23:34;;;;;;;6.88;2.65;;;;;;;;;;5013472;28;20041;-61
2022/05/12 02:25:59;;;;;;;6.95;2.90;;;;;;;;;;5011459;28;20034;-62
2022/05/12 02:28:25;;;;;;;7.15;2.90;;;;;;;;;;5012876;28;20133;-60
2022/05/12 02:30:50;;;;;;;5.85;2.72;;;;;;;;;;5012244;28;20034;-59
2022/05/12 02:33:16;;;;;;;8.10;2.75;;;;;;;;;;5012981;28;20046;-59
2022/05/12 02:35:41;;;;;;;7.25;3.08;;;;;;;;;;5011152;28;20414;-60
2022/05/12 02:38:08;;;;;;;5.38;2.72;;;;;;;;;;5010534;28;20040;-61
2022/05/12 02:40:33;;;;;;;8.63;2.65;;;;;;;;;;5003335;28;20041;-61
2022/05/12 02:42:59;;;;;;;7.00;2.50;;;;;;;;;;5012369;28;20053;-62
2022/05/12 02:45:28;;;;;;;6.47;2.70;;;;;;;;;;5010632;28;20113;-60
2022/05/12 02:47:55;;;;;;;8.43;2.50;;;;;;;;;;5013128;28;20022;-61
2022/05/12 02:50:20;;;;;;;6.28;2.92;;;;;;;;;;5010898;28;20053;-60
2022/05/12 02:52:46;;;;;;;6.47;2.80;;;;;;;;;;5011550;28;20398;-60
2022/05/12 02:55:12;;;;;;;5.70;2.38;;;;;;;;;;5010290;28;20026;-60
2022/05/12 02:57:39;;;;;;;7.63;2.53;;;;;;;;;;5008591;28;20038;-60
2022/05/12 03:00:07;;;;;;;6.13;2.40;;;;;;;;;;4997698;28;20065;-60
2022/05/12 03:02:33;;;;;;;9.82;2.90;;;;;;;;;;5013204;28;20542;-60
2022/05/12 03:04:59;;;;;;;4.63;2.40;;;;;;;;;;5007268;28;20124;-61
2022/05/12 03:07:24;;;;;;;8.73;2.63;;;;;;;;;;5001812;28;20148;-61
2022/05/12 03:09:49;;;;;;;7.57;2.70;;;;;;;;;;5012198;28;20026;-60
2022/05/12 03:12:15;;;;;;;5.70;2.35;;;;;;;;;;5008740;28;20026;-61
2022/05/12 03:14:40;;;;;;;5.30;2.33;;;;;;;;;;5011057;28;20048;-60
2022/05/12 03:17:06;;;;;;;6.82;2.45;;;;;;;;;;5011281;28;20033;-62
2022/05/12 03:19:31;;;;;;;8.10;2.47;;;;;;;;;;5011808;28;20041;-61
2022/05/12 03:21:57;;;;;;;9.10;2.50;;;;;;;;;;5012562;28;20045;-61
2022/05/12 03:24:22;;;;;;;5.63;2.20;;;;;;;;;;5007687;28;20514;-60
2022/05/12 03:26:48;;;;;;;4.35;2.30;;;;;;;;;;5012910;28;20083;-59
2022/05/12 03:29:14;;;;;;;8.57;2.30;;;;;;;;;;5003043;28;20057;-60
2022/05/12 03:31:40;;;;;;;6.05;2.58;;;;;;;;;;5017718;28;20029;-59
2022/05/12 03:34:06;;;;;;;8.35;2.42;;;;;;;;;;5008973;28;20106;-61
2022/05/12 03:36:35;;;;;;;8.85;2.95;;;;;;;;;;5010736;28;20522;-60
2022/05/12 03:39:04;;;;;;;7.55;2.40;;;;;;;;;;5009787;28;20033;-62
2022/05/12 03:41:31;;;;;;;6.88;2.70;;;;;;;;;;5011529;28;20041;-60
2022/05/12 03:46:40;;;;;;;8.52;2.40;;;;;;;;;;5011288;28;20497;-62
2022/05/12 03:49:05;;;;;;;6.50;2.45;;;;;;;;;;5008539;28;20042;-61
2022/05/12 03:51:31;;;;;;;5.97;2.70;;;;;;;;;;5011096;28;20026;-59
2022/05/12 03:53:56;;;;;;;6.95;3.17;;;;;;;;;;5010491;28;20462;-61
2022/05/12 03:56:22;;;;;;;7.28;3.25;;;;;;;;;;5010490;28;20025;-60
2022/05/12 03:58:47;;;;;;;8.75;3.47;;;;;;;;;;5012095;28;20045;-62
2022/05/12 04:01:13;;;;;;;10.73;3.28;;;;;;;;;;5005924;28;20168;-61
2022/05/12 04:03:38;;;;;;;5.90;3.15;;;;;;;;;;5011314;28;20045;-61
2022/05/12 04:06:05;;;;;;;6.88;3.15;;;;;;;;;;5009875;28;20079;-62
2022/05/12 04:08:31;;;;;;;8.48;3.47;;;;;;;;;;5011326;28;20474;-60
2022/05/12 04:10:56;;;;;;;7.53;3.42;;;;;;;;;;5009878;28;20044;-61
2022/05/12 04:13:23;;;;;;;10.43;4.03;;;;;;;;;;5008059;28;20030;-59
2022/05/12 04:15:49;;;;;;;10.25;3.72;;;;;;;;;;5003605;28;20048;-60
2022/05/12 04:18:14;;;;;;;9.15;4.30;;;;;;;;;;5011021;28;20113;-61
2022/05/12 04:20:39;;;;;;;10.02;3.95;;;;;;;;;;5003449;28;20410;-60
2022/05/12 04:23:06;;;;;;;12.90;3.97;;;;;;;;;;5004573;28;20025;-61
2022/05/12 04:25:31;;;;;;;9.07;4.22;;;;;;;;;;5009652;28;20253;-64
2022/05/12 04:27:57;;;;;;;10.23;4.05;;;;;;;;;;5012943;28;20323;-60
2022/05/12 04:30:24;;;;;;;7.10;3.88;;;;;;;;;;5006216;28;20220;-60
2022/05/12 04:32:50;;;;;;;9.23;3.85;;;;;;;;;;5011791;28;20433;-60
2022/05/12 04:35:16;;;;;;;10.98;4.43;;;;;;;;;;5007825;28;20550;-61
2022/05/12 04:37:50;;;;;;;9.98;4.00;;;;;;;;;;5011413;28;20032;-60
2022/05/12 04:40:24;;;;;;;10.60;3.97;;;;;;;;;;5009472;28;20092;-60
2022/05/12 04:42:51;;;;;;;9.80;4.03;;;;;;;;;;5011128;28;20128;-60
2022/05/12 04:45:18;;;;;;;7.28;4.15;;;;;;;;;;5007714;28;20049;-60
2022/05/12 04:47:45;;;;;;;9.80;4.60;;;;;;;;;;5010975;28;20041;-61
2022/05/12 04:50:15;;;;;;;9.55;4.30;;;;;;;;;;5010371;28;20030;-60
2022/05/12 04:52:40;;;;;;;9.15;4.07;;;;;;;;;;5002738;28;20368;-60
2022/05/12 04:55:06;;;;;;;12.40;4.18;;;;;;;;;;5010287;28;20486;-62
2022/05/12 04:57:39;;;;;;;12.35;4.22;;;;;;;;;;5005234;28;20391;-60
2022/05/12 05:00:07;;;;;;;10.98;4.45;;;;;;;;;;4992247;28;20026;-62
2022/05/12 05:02:33;;;;;;;9.05;3.83;;;;;;;;;;5008440;28;20042;-60
2022/05/12 05:04:58;;;;;;;11.70;4.00;;;;;;;;;;5011450;28;20425;-60
2022/05/12 05:07:26;;;;;;;13.02;4.45;;;;;;;;;;4993432;28;20050;-61
2022/05/12 05:09:51;;;;;;;10.57;4.10;;;;;;;;;;5008371;28;20034;-61
2022/05/12 05:12:17;;;;;;;9.48;4.45;;;;;;;;;;5010070;28;20033;-60
2022/05/12 05:14:42;;;;;;;8.77;4.13;;;;;;;;;;5013076;28;20030;-60
2022/05/12 05:17:08;;;;;;;12.02;4.90;;;;;;;;;;5011136;28;20045;-62
2022/05/12 05:19:33;;;;;;;8.13;4.25;;;;;;;;;;5010939;28;20057;-61
2022/05/12 05:21:58;;;;;;;9.30;4.47;;;;;;;;;;5010530;28;20038;-61
2022/05/12 05:24:24;;;;;;;11.48;4.50;;;;;;;;;;5006616;28;20026;-61
2022/05/12 05:26:49;;;;;;;11.75;4.47;;;;;;;;;;5010006;28;20105;-61
2022/05/12 05:29:15;;;;;;;9.05;4.75;;;;;;;;;;4999050;28;20114;-59
2022/05/12 05:31:41;;;;;;;9.02;4.82;;;;;;;;;;5008043;28;20467;-66
2022/05/12 05:34:09;;;;;;;11.20;4.85;;;;;;;;;;5006587;28;20035;-65
2022/05/12 05:36:34;;;;;;;11.13;4.47;;;;;;;;;;5009715;28;20383;-61
2022/05/12 05:39:00;;;;;;;11.68;4.78;;;;;;;;;;5009781;28;20036;-62
2022/05/12 05:41:25;;;;;;;11.77;4.30;;;;;;;;;;5002640;28;20042;-59
2022/05/12 05:43:50;;;;;;;11.80;4.28;;;;;;;;;;5009840;28;20053;-60
2022/05/12 05:46:16;;;;;;;9.88;4.40;;;;;;;;;;5004107;28;20390;-69
2022/05/12 05:48:43;;;;;;;8.63;4.80;;;;;;;;;;4991903;28;20030;-70
2022/05/12 05:53:54;;;;;;;9.35;4.80;;;;;;;;;;5011416;28;20045;-66
2022/05/12 05:56:20;;;;;;;10.15;4.85;;;;;;;;;;5004642;28;20424;-68
2022/05/12 05:58:46;;;;;;;11.48;4.90;;;;;;;;;;4995327;28;20041;-64
2022/05/12 06:01:12;;;;;;;11.70;4.95;;;;;;;;;;4994777;28;20057;-64
2022/05/12 06:03:39;;;;;;;11.93;4.80;;;;;;;;;;5006628;28;20038;-68
2022/05/12 06:06:05;;;;;;;11.38;5.15;;;;;;;;;;5015067;28;20099;-68
2022/05/12 06:08:31;;;;;;;13.52;5.10;;;;;;;;;;5013478;28;20752;-68
2022/05/12 06:11:02;;;;;;;11.63;5.10;;;;;;;;;;5004096;28;20041;-68
2022/05/12 06:13:28;;;;;;;13.50;5.45;;;;;;;;;;5011242;28;20048;-71
2022/05/12 06:15:54;;;;;;;10.23;4.63;;;;;;;;;;5014779;28;20038;-71
2022/05/12 06:18:19;;;;;;;9.18;4.93;;;;;;;;;;4999607;28;20034;-73
2022/05/12 06:20:47;;;;;;;14.90;5.70;;;;;;;;;;5009701;28;20056;-67
2022/05/12 06:23:13;;;;;;;8.77;5.22;;;;;;;;;;5013963;28;20087;-68
2022/05/12 06:25:39;;;;;;;10.02;4.93;;;;;;;;;;5008849;28;20042;-71
2022/05/12 06:28:06;;;;;;;15.48;5.70;;;;;;;;;;5006874;28;20459;-69
2022/05/12 06:30:32;;;;;;;11.90;5.38;;;;;;;;;;4999287;28;20140;-71
2022/05/12 06:32:58;;;;;;;11.63;5.43;;;;;;;;;;5004832;28;20061;-72
2022/05/12 06:35:25;;;;;;;9.07;5.15;;;;;;;;;;5006825;28;20433;-68
2022/05/12 06:37:51;;;;;;;11.55;4.82;;;;;;;;;;5005694;28;20036;-69
2022/05/12 06:40:17;;;;;;;9.18;4.40;;;;;;;;;;5007584;28;20394;-69
2022/05/12 06:42:43;;;;;;;12.23;5.10;;;;;;;;;;5012640;28;20053;-66
2022/05/12 06:45:11;;;;;;;11.88;5.13;;;;;;;;;;5012237;28;20038;-66
2022/05/12 06:47:36;;;;;;;11.88;5.20;;;;;;;;;;5005123;28;20490;-68
2022/05/12 06:50:03;;;;;;;7.65;4.40;;;;;;;;;;5013447;28;20116;-70
2022/05/12 06:52:29;;;;;;;10.23;4.82;;;;;;;;;;5010292;28;20034;-69
2022/05/12 06:54:55;;;;;;;10.40;5.25;;;;;;;;;;5014188;28;20116;-69
2022/05/12 06:57:23;;;;;;;11.45;5.07;;;;;;;;;;5012396;28;20045;-67
2022/05/12 06:59:49;;;;;;;13.65;5.53;;;;;;;;;;5014069;28;20029;-69
2022/05/12 07:02:15;;;;;;;9.05;4.93;;;;;;;;;;5011370;28;20034;-73
2022/05/12 07:04:41;;;;;;;7.13;4.28;;;;;;;;;;5006269;28;20037;-73
2022/05/12 07:07:07;;;;;;;8.55;4.45;;;;;;;;;;5011683;28;20121;-66
2022/05/12 07:09:32;;;;;;;9.07;4.60;;;;;;;;;;5012147;28;20094;-66
2022/05/12 07:11:58;;;;;;;7.97;3.70;;;;;;;;;;5012038;28;20032;-65
2022/05/12 07:14:23;;;;;;;8.15;4.25;;;;;;;;;;5012871;28;20109;-65
2022/05/12 07:16:50;;;;;;;8.95;4.50;;;;;;;;;;5006641;28;20564;-68
2022/05/12 07:19:16;;;;;;;9.70;4.72;;;;;;;;;;5012946;28;20065;-69
2022/05/12 07:27:13;;;;;;;14.43;7.03;;;;;;;;;;5008291;28;20395;-69
2022/05/12 07:29:38;;;;;;;14.95;9.35;;;;;;;;;;5012355;28;20038;-67
2022/05/12 07:32:06;;;;;;;15.45;9.77;;;;;;;;;;5004128;28;20553;-67
2022/05/12 07:34:31;;;;;;;15.65;9.48;;;;;;;;;;4998754;28;20140;-65
2022/05/12 07:36:57;;;;;;;17.45;10.63;;;;;;;;;;5006747;28;20105;-65
2022/05/12 07:39:27;;;;;;;17.70;10.80;;;;;;;;;;5001814;28;20107;-65
2022/05/12 07:41:53;;;;;;;16.95;9.82;;;;;;;;;;5011750;28;20057;-64
2022/05/12 07:44:19;;;;;;;19.38;11.98;;;;;;;;;;5009661;28;20458;-66
2022/05/12 07:46:46;;;;;;;21.48;12.93;;;;;;;;;;5012217;28;20118;-66
2022/05/12 07:49:13;;;;;;;21.55;13.65;;;;;;;;;;5010246;28;20100;-64
2022/05/12 07:51:39;;;;;;;19.00;11.98;;;;;;;;;;5012312;28;20034;-66
2022/05/12 07:54:05;;;;;;;19.25;12.63;;;;;;;;;;5010477;28;20030;-66
2022/05/12 07:56:31;;;;;;;17.10;11.23;;;;;;;;;;5012032;28;20026;-65
2022/05/12 07:58:58;;;;;;;19.13;11.65;;;;;;;;;;5010969;28;20129;-66
2022/05/12 08:01:25;;;;;;;17.40;10.57;;;;;;;;;;5007045;28;20041;-65
2022/05/12 08:03:51;;;;;;;14.70;10.77;;;;;;;;;;5011667;28;20038;-65
2022/05/12 08:06:17;;;;;;;17.65;11.60;;;;;;;;;;5008945;28;20073;-65
2022/05/12 08:08:45;;;;;;;16.35;10.30;;;;;;;;;;5012254;28;20041;-65
2022/05/12 08:11:10;;;;;;;18.55;9.35;;;;;;;;;;5010836;28;20030;-66
2022/05/12 08:13:37;;;;;;;14.13;8.57;;;;;;;;;;5012120;28;20088;-65
2022/05/12 08:16:04;;;;;;;14.10;7.50;;;;;;;;;;5008983;28;20038;-64
2022/05/12 08:18:35;;;;;;;10.55;6.93;;;;;;;;;;5011761;28;20037;-64
2022/05/12 08:21:01;;;;;;;14.18;7.22;;;;;;;;;;5009518;28;20040;-66
2022/05/12 08:23:26;;;;;;;11.27;6.40;;;;;;;;;;5026747;28;20041;-67
2022/05/12 08:25:52;;;;;;;11.10;7.10;;;;;;;;;;5005814;28;20468;-65
2022/05/12 08:28:21;;;;;;;11.10;6.20;;;;;;;;;;4992050;28;20042;-66
2022/05/12 08:30:49;;;;;;;9.38;6.22;;;;;;;;;;5006874;28;20248;-65
2022/05/12 08:33:15;;;;;;;9.98;6.22;;;;;;;;;;5005513;28;20033;-68
2022/05/12 08:35:42;;;;;;;9.88;6.40;;;;;;;;;;4996535;28;20475;-65
2022/05/12 08:38:08;;;;;;;10.38;6.30;;;;;;;;;;5002753;28;20034;-65
2022/05/12 08:41:12;;;;;;;11.27;6.20;;;;;;;;;;5011116;28;20089;-65
2022/05/12 08:43:43;;;;;;;12.07;5.93;;;;;;;;;;5007959;28;20620;-64
2022/05/12 08:46:13;;;;;;;12.88;6.13;;;;;;;;;;5007635;28;20042;-67
2022/05/12 08:48:42;;;;;;;9.30;5.65;;;;;;;;;;5005548;28;20455;-67
2022/05/12 08:51:12;;;;;;;10.32;5.25;;;;;;;;;;5011968;28;20104;-65
2022/05/12 08:53:56;;;;;;;10.43;5.53;;;;;;;;;;5009971;28;20045;-66
2022/05/12 08:56:23;;;;;;;11.60;5.38;;;;;;;;;;5011351;28;20248;-65
2022/05/12 08:58:51;;;;;;;7.95;5.28;;;;;;;;;;5007455;28;20041;-65
2022/05/12 09:01:40;;;;;;;7.03;4.88;;;;;;;;;;5010288;28;20124;-68
2022/05/12 09:04:27;;;;;;;8.43;4.57;;;;;;;;;;5011317;28;20112;-66
2022/05/12 09:07:02;;;;;;;8.10;5.00;;;;;;;;;;5001214;28;20042;-65
2022/05/12 09:09:54;;;;;;;9.45;4.85;;;;;;;;;;4991588;28;20034;-66
2022/05/12 09:12:51;;;;;;;9.65;4.80;;;;;;;;;;5015752;28;20446;-65
2022/05/12 09:15:34;;;;;;;7.53;4.85;;;;;;;;;;5009918;28;20054;-66
2022/05/12 09:18:10;;;;;;;7.15;4.68;;;;;;;;;;5009899;28;20108;-68
2022/05/12 09:20:36;;;;;;;7.93;4.88;;;;;;;;;;5008028;28;20493;-67
2022/05/12 09:23:03;;;;;;;8.93;4.72;;;;;;;;;;5009511;28;20101;-66
2022/05/12 09:25:36;;;;;;;7.35;4.95;;;;;;;;;;5011030;28;20125;-68
2022/05/12 09:28:25;;;;;;;9.65;5.05;;;;;;;;;;5010969;28;20041;-70
2022/05/12 09:30:51;;;;;;;7.75;4.65;;;;;;;;;;5010229;28;20038;-65
2022/05/12 09:33:34;;;;;;;9.80;5.53;;;;;;;;;;5011113;28;20045;-65
2022/05/12 09:36:07;;;;;;;9.93;5.72;;;;;;;;;;5013184;28;20030;-66
2022/05/12 09:38:44;;;;;;;8.25;4.82;;;;;;;;;;5015256;28;20025;-67
2022/05/12 09:41:15;;;;;;;8.32;4.78;;;;;;;;;;5013628;28;20072;-66
2022/05/12 09:43:40;;;;;;;;;;;;;;;;;;4996198;28;20060;-68
2022/05/12 09:46:29;;;;;;;9.80;4.50;;;;;;;;;;5015740;28;19913;-63
2022/05/12 09:49:15;;;;;;;7.50;4.70;;;;;;;;;;5013471;28;20030;-63
2022/05/12 09:51:41;;;;;;;9.95;5.20;;;;;;;;;;5010304;28;20459;-62
2022/05/12 09:54:28;;;;;;;10.50;5.47;;;;;;;;;;5012942;28;20030;-64
2022/05/12 09:57:02;;;;;;;8.82;5.15;;;;;;;;;;5004072;28;20042;-68
2022/05/12 09:59:31;;;;;;;8.75;4.85;;;;;;;;;;4994898;28;20034;-66
2022/05/12 10:01:58;;;;;;;12.00;5.38;;;;;;;;;;5016295;28;20034;-64
2022/05/12 10:10:23;;;;;;;7.25;4.78;;;;;;;;;;5001621;28;20158;-66
2022/05/12 10:13:20;;;;;;;10.38;5.30;;;;;;;;;;5013879;28;20133;-64
2022/05/12 10:15:46;;;;;;;12.07;4.95;;;;;;;;;;5005657;28;20033;-64
2022/05/12 10:18:28;;;;;;;10.30;4.50;;;;;;;;;;4999931;28;20038;-66
2022/05/12 10:20:56;;;;;;;8.20;5.07;;;;;;;;;;4998866;28;20518;-66
2022/05/12 10:23:53;;;;;;;9.63;5.22;;;;;;;;;;4994071;28;20109;-67
2022/05/12 10:26:40;;;;;;;10.65;4.47;;;;;;;;;;5011101;28;20068;-67
2022/05/12 10:29:21;;;;;;;9.00;4.78;;;;;;;;;;5012464;28;20038;-67
2022/05/12 10:32:02;;;;;;;6.57;4.68;;;;;;;;;;4994902;28;20033;-66
2022/05/12 10:34:39;;;;;;;;;;;;;;;;;;4997207;28;20042;-65
2022/05/12 10:37:25;;;;;;;8.90;4.72;;;;;;;;;;5013223;28;20314;-66
2022/05/12 10:40:23;;;;;;;7.70;4.88;;;;;;;;;;5011119;28;20042;-65
2022/05/12 10:43:10;;;;;;;8.95;5.70;;;;;;;;;;4969910;28;20569;-66
2022/05/12 10:45:47;;;;;;;10.73;5.40;;;;;;;;;;5010518;28;20038;-65
2022/05/12 10:48:21;;;;;;;7.05;4.95;;;;;;;;;;5010159;28;20049;-66
2022/05/12 10:51:03;;;;;;;8.30;5.43;;;;;;;;;;5012846;28;20450;-66
2022/05/12 10:53:48;;;;;;;9.45;5.35;;;;;;;;;;5007628;28;20052;-66
2022/05/12 10:56:35;;;;;;;10.18;5.95;;;;;;;;;;5006747;28;20758;-68
2022/05/12 10:59:37;;;;;;;9.43;5.90;;;;;;;;;;5001797;28;20033;-66
2022/05/12 11:02:13;;;;;;;9.52;5.80;;;;;;;;;;5012560;28;20112;-66
2022/05/12 11:04:47;;;;;;;7.75;5.03;;;;;;;;;;5010432;28;20117;-67
2022/05/12 11:07:31;;;;;;;8.23;4.95;;;;;;;;;;5008880;28;20038;-68
2022/05/12 11:10:15;;;;;;;10.85;5.15;;;;;;;;;;5013379;28;20056;-66
2022/05/12 11:12:51;;;;;;;9.77;4.70;;;;;;;;;;5009666;28;20030;-66
2022/05/12 11:15:19;;;;;;;8.80;4.30;;;;;;;;;;5012030;28;20026;-68
2022/05/12 11:17:48;;;;;;;7.93;4.68;;;;;;;;;;5010531;28;20030;-66
2022/05/12 11:20:19;;;;;;;8.00;4.50;;;;;;;;;;5009698;28;20084;-67
2022/05/12 11:23:08;;;;;;;9.15;4.50;;;;;;;;;;5011818;28;20045;-65
2022/05/12 11:26:00;;;;;;;9.93;4.80;;;;;;;;;;5025204;28;20057;-66
2022/05/12 11:31:44;;;;;;;7.82;3.78;;;;;;;;;;4992561;28;20049;-67
2022/05/12 11:34:16;;;;;;;6.97;4.35;;;;;;;;;;4993780;28;20053;-66
2022/05/12 11:36:45;;;;;;;8.52;4.15;;;;;;;;;;4996094;28;20045;-67
2022/05/12 11:39:23;;;;;;;6.80;3.80;;;;;;;;;;5009216;28;20038;-66
2022/05/12 11:42:04;;;;;;;6.55;4.07;;;;;;;;;;5010496;28;20045;-66
2022/05/12 11:44:34;;;;;;;;;;;;;;;;;;5010268;28;20049;-67
2022/05/12 11:47:24;;;;;;;5.75;3.13;;;;;;;;;;5011963;28;19941;-67
2022/05/12 11:50:27;;;;;;;5.22;3.03;;;;;;;;;;5010924;28;20108;-66
2022/05/12 11:52:59;;;;;;;6.78;3.25;;;;;;;;;;5011183;28;20112;-66
2022/05/12 11:55:35;;;;;;;5.43;3.03;;;;;;;;;;4997894;28;20093;-67
2022/05/12 11:58:11;;;;;;;5.90;3.30;;;;;;;;;;4993654;28;20027;-66
2022/05/12 12:00:36;;;;;;;6.60;3.72;;;;;;;;;;5002569;28;20033;-67
2022/05/12 12:03:24;;;;;;;6.55;3.50;;;;;;;;;;5012870;28;20029;-68
2022/05/12 12:05:50;;;;;;;6.18;3.60;;;;;;;;;;5002981;28;20052;-67
2022/05/12 12:08:31;;;;;;;7.28;3.90;;;;;;;;;;4999140;28;20034;-66
2022/05/12 12:11:15;;;;;;;;;;;;;;;;;;5005550;28;20033;-68
2022/05/12 12:13:45;;;;;;;7.38;3.83;;;;;;;;;;5010266;28;19924;-68
2022/05/12 12:16:12;;;;;;;11.98;4.55;;;;;;;;;;5012611;28;20041;-68
2022/05/12 12:18:38;;;;;;;9.57;3.92;;;;;;;;;;5011102;28;20057;-68
2022/05/12 12:21:25;;;;;;;7.85;4.00;;;;;;;;;;5007661;28;20031;-67
2022/05/12 12:24:08;;;;;;;11.18;4.30;;;;;;;;;;4996972;28;20023;-67
2022/05/12 12:26:36;;;;;;;7.95;4.05;;;;;;;;;;5006480;28;20029;-67
2022/05/12 12:29:20;;;;;;;6.22;4.20;;;;;;;;;;5012582;28;20478;-67
2022/05/12 12:31:51;;;;;;;8.65;4.70;;;;;;;;;;4997998;28;20029;-67
2022/05/12 12:34:24;;;;;;;7.82;4.60;;;;;;;;;;5007096;28;20467;-69
2022/05/12 12:36:49;;;;;;;9.13;5.55;;;;;;;;;;5010164;28;20486;-69
2022/05/12 12:39:34;;;;;;;9.35;5.45;;;;;;;;;;5011602;28;20084;-66
2022/05/12 12:42:20;;;;;;;9.52;5.95;;;;;;;;;;4992054;28;20034;-66
2022/05/12 12:44:55;;;;;;;10.60;6.07;;;;;;;;;;4991977;28;20470;-67
2022/05/12 12:47:39;;;;;;;9.27;5.68;;;;;;;;;;5010070;28;20037;-67
2022/05/12 12:50:16;;;;;;;8.48;5.65;;;;;;;;;;5010972;28;20045;-68
2022/05/12 12:52:45;;;;;;;11.70;5.97;;;;;;;;;;5009079;28;20046;-70
2022/05/12 12:58:43;;;;;;;8.60;5.90;;;;;;;;;;5011233;28;20056;-68
2022/05/12 13:01:16;;;;;;;12.05;5.70;;;;;;;;;;5009589;28;20048;-66
2022/05/12 13:03:52;;;;;;;10.38;5.57;;;;;;;;;;5011135;28;20051;-68
2022/05/12 13:06:25;;;;;;;9.32;5.55;;;;;;;;;;5006140;28;20486;-66
2022/05/12 13:09:06;;;;;;;6.13;4.40;;;;;;;;;;4997282;28;20034;-67
2022/05/12 13:11:36;;;;;;;6.10;4.47;;;;;;;;;;5002428;28;20070;-68
2022/05/12 13:14:02;;;;;;;10.80;5.50;;;;;;;;;;4993171;28;20030;-67
2022/05/12 13:16:33;;;;;;;8.63;5.35;;;;;;;;;;5004414;28;20025;-68
2022/05/12 13:18:59;;;;;;;11.05;5.20;;;;;;;;;;4992281;28;20042;-69
2022/05/12 13:21:31;;;;;;;9.57;5.97;;;;;;;;;;4998224;28;20414;-66
2022/05/12 13:24:02;;;;;;;8.70;5.95;;;;;;;;;;5012071;28;20072;-68
2022/05/12 13:26:27;;;;;;;12.57;5.95;;;;;;;;;;5008683;28;20038;-69
2022/05/12 13:28:54;;;;;;;9.77;5.47;;;;;;;;;;5011849;28;20486;-67
2022/05/12 13:31:23;;;;;;;8.90;5.22;;;;;;;;;;5007016;28;20040;-68
2022/05/12 13:34:24;;;;;;;11.07;4.80;;;;;;;;;;4992276;28;20066;-67
2022/05/12 13:36:54;;;;;;;8.85;5.35;;;;;;;;;;5004228;28;20077;-68
2022/05/12 13:39:39;;;;;;;;;;;;;;;;;;5008143;28;20494;-68
2022/05/12 13:42:07;;;;;;;8.60;5.45;;;;;;;;;;5011746;28;19917;-67
2022/05/12 13:44:36;;;;;;;9.45;5.25;;;;;;;;;;5023594;28;20034;-68
2022/05/12 13:47:04;;;;;;;9.68;4.60;;;;;;;;;;5010577;28;20479;-66
2022/05/12 13:49:33;;;;;;;8.50;4.55;;;;;;;;;;5007956;28;20487;-66
2022/05/12 13:52:14;;;;;;;10.88;4.90;;;;;;;;;;5011554;28;20084;-65
2022/05/12 13:54:44;;;;;;;10.60;5.05;;;;;;;;;;5007552;28;20038;-66
2022/05/12 13:57:31;;;;;;;7.07;4.70;;;;;;;;;;5012052;28;20044;-65
2022/05/12 14:00:11;;;;;;;7.95;4.93;;;;;;;;;;5001342;28;20030;-68
2022/05/12 14:02:50;;;;;;;8.63;4.68;;;;;;;;;;4990734;28;20267;-64
2022/05/12 14:05:18;;;;;;;7.47;4.68;;;;;;;;;;5010899;28;20221;-67
2022/05/12 14:08:01;;;;;;;9.40;4.45;;;;;;;;;;5010748;28;20036;-67
2022/05/12 14:10:42;;;;;;;8.93;4.75;;;;;;;;;;5009674;28;20034;-69
2022/05/12 14:19:19;;;;;;;6.75;4.07;;;;;;;;;;4998678;28;20065;-66
2022/05/12 14:21:56;;;;;;;6.47;4.10;;;;;;;;;;5012990;28;20034;-67
2022/05/12 14:24:23;;;;;;;7.90;3.80;;;;;;;;;;5013033;28;20034;-67
2022/05/12 14:26:49;;;;;;;6.60;3.80;;;;;;;;;;5013957;28;20463;-66
2022/05/12 14:29:15;;;;;;;7.60;3.63;;;;;;;;;;5014773;28;20029;-68
2022/05/12 14:31:43;;;;;;;8.23;3.67;;;;;;;;;;5010520;28;20042;-66
2022/05/12 14:34:09;;;;;;;8.60;4.00;;;;;;;;;;5014824;28;20026;-68
2022/05/12 14:36:35;;;;;;;6.95;3.97;;;;;;;;;;5012465;28;20045;-66
2022/05/12 14:39:01;;;;;;;7.28;4.57;;;;;;;;;;5014828;28;20032;-66
2022/05/12 14:41:27;;;;;;;7.05;4.03;;;;;;;;;;5011120;28;20041;-67
2022/05/12 14:43:53;;;;;;;8.02;3.70;;;;;;;;;;5011157;28;20129;-66
2022/05/12 14:46:21;;;;;;;6.38;3.33;;;;;;;;;;5011893;28;20042;-69
2022/05/12 14:48:47;;;;;;;7.70;3.67;;;;;;;;;;5014439;28;20173;-65
2022/05/12 14:51:16;;;;;;;9.52;3.65;;;;;;;;;;5011985;28;20053;-65
2022/05/12 14:53:41;;;;;;;6.15;3.45;;;;;;;;;;5013502;28;20041;-68
2022/05/12 14:56:07;;;;;;;5.15;3.38;;;;;;;;;;5013564;28;20029;-65
2022/05/12 14:58:33;;;;;;;5.60;3.30;;;;;;;;;;5009981;28;20030;-66
2022/05/12 15:00:59;;;;;;;5.57;3.40;;;;;;;;;;5009961;28;20034;-68
2022/05/12 15:03:24;;;;;;;5.95;3.75;;;;;;;;;;5012910;28;20430;-68
2022/05/12 15:05:49;;;;;;;7.50;3.80;;;;;;;;;;5008865;28;20497;-66
2022/05/12 15:08:15;;;;;;;6.53;3.45;;;;;;;;;;5002558;28;20027;-67
2022/05/12 15:10:40;;;;;;;7.35;3.50;;;;;;;;;;4993896;28;20038;-69
2022/05/12 15:13:06;;;;;;;7.90;3.70;;;;;;;;;;5011732;28;20465;-68
2022/05/12 15:15:33;;;;;;;5.55;3.30;;;;;;;;;;5006986;28;20091;-67
2022/05/12 15:17:59;;;;;;;7.10;3.50;;;;;;;;;;5013088;28;20164;-69
2022/05/12 15:20:25;;;;;;;6.40;3.60;;;;;;;;;;5010873;28;20072;-66
2022/05/12 15:22:51;;;;;;;8.40;3.70;;;;;;;;;;5013643;28;20037;-67
2022/05/12 15:25:17;;;;;;;7.28;3.20;;;;;;;;;;5003626;28;20443;-68
2022/05/12 15:27:46;;;;;;;7.35;4.05;;;;;;;;;;5011791;28;20041;-66